Casselton, ND (58012)

10:29 PM CDT on May 28, 2015 (GMT -0500)
Casselton, ND | | Change Station
CLOSE
Current Station
Personal Weather Station
Location: Casselton, ND
Elevation: 935 ft
Nearby Weather Stations

Elev 935 ft 46.90 °N, 97.21 °W | Updated 7 seconds ago

Rain
Rain
64.9 °F
Feels Like 64.9 °F
N
2.9
Wind Variable Wind from ESE
Gusts 4.9 mph

Today
High -- | Low -- °F
--% Chance of Precip.
Yesterday
High -- | Low -- °F
Precip. -- in
5:41 AM 9:11 PM
Waxing Gibbous, 80% visible
Pressure 29.81 in
Visibility 10.0 miles
Clouds Scattered Clouds 8500 ft
Mostly Cloudy 12000 ft
Dew Point 64 °F
Humidity 97%
Rainfall 0.27 in
Snow Depth Not available.
UV 0.0 out of 12
Pollen 6.10 out of 12
Air Quality Not available.
Flu Activity Sporadic
METAR KFAR 290253Z 14005KT 10SM -RA SCT085 BKN120 18/16 A2981 RMK AO2 RAB39 SLP093 P0000 60003 T01830161 53008

More Conditions Fewer Conditions

Pressure 29.81 in
Visibility 10.0 miles
Clouds Scattered Clouds 8500 ft
Mostly Cloudy 12000 ft
Dew Point 64 °F
Humidity 97%
Rainfall 0.27 in
Snow Depth Not available.
UV 0.0 out of 12
Pollen 6.10 out of 12
Air Quality Not available.
Flu Activity Sporadic
METAR KFAR 290253Z 14005KT 10SM -RA SCT085 BKN120 18/16 A2981 RMK AO2 RAB39 SLP093 P0000 60003 T01830161 53008

More Conditions Fewer Conditions

10-Day Weather Forecast

Almanac

Astronomy

May. 28, 2015 Rise Set
Actual Time
Civil Twilight
Nautical Twilight
Astronomical Twilight
Moon
Length of Visible Light
Length of Day
Tomorrow will be .
, % of the Moon is Illuminated

Today's Extremes

State Highs State Lows

Community

WunderPhotos

Upload Photos

1,825,164 photos uploaded!

WunderBlogs® & News

Nearby

Air Quality

  Air Quality AQ Index Pollutant
Not available.

Snow Depth

Station Depth Elevation

Earthquake Activity

City Distance Mag. Time & Date
Minimum magnitude displayed is 2.5.

Coastal Water Temperatures

Place Temperature

Stations

Nearby Weather Stations

Station Location Temp. Windchill Dew Point Humidity Wind Precip. Elev Updated Type